sensor_id;sensor_type;location;lat;lon;timestamp;temperature;humidity
56046;DHT22;41913;51.030;3.706;2023-12-22T00:00:29;20.20;78.20
56046;DHT22;41913;51.030;3.706;2023-12-22T00:02:55;20.20;78.40
56046;DHT22;41913;51.030;3.706;2023-12-22T00:05:21;20.20;78.40
56046;DHT22;41913;51.030;3.706;2023-12-22T00:07:47;20.20;78.60
56046;DHT22;41913;51.030;3.706;2023-12-22T00:10:12;20.20;78.60
56046;DHT22;41913;51.030;3.706;2023-12-22T00:12:38;20.20;78.70
56046;DHT22;41913;51.030;3.706;2023-12-22T00:15:05;20.20;78.80
56046;DHT22;41913;51.030;3.706;2023-12-22T00:17:31;20.20;78.90
56046;DHT22;41913;51.030;3.706;2023-12-22T00:19:58;20.10;78.90
56046;DHT22;41913;51.030;3.706;2023-12-22T00:22:28;20.10;78.90
56046;DHT22;41913;51.030;3.706;2023-12-22T00:24:55;20.10;79.00
56046;DHT22;41913;51.030;3.706;2023-12-22T00:27:20;20.10;79.10
56046;DHT22;41913;51.030;3.706;2023-12-22T00:29:46;20.10;78.90
56046;DHT22;41913;51.030;3.706;2023-12-22T00:32:12;20.10;78.80
56046;DHT22;41913;51.030;3.706;2023-12-22T00:34:38;20.10;78.80
56046;DHT22;41913;51.030;3.706;2023-12-22T00:37:04;20.10;78.80
56046;DHT22;41913;51.030;3.706;2023-12-22T00:39:31;20.00;78.80
56046;DHT22;41913;51.030;3.706;2023-12-22T00:41:57;20.00;78.80
56046;DHT22;41913;51.030;3.706;2023-12-22T00:44:23;20.00;78.70
56046;DHT22;41913;51.030;3.706;2023-12-22T00:46:49;20.00;78.70
56046;DHT22;41913;51.030;3.706;2023-12-22T00:49:14;20.00;78.80
56046;DHT22;41913;51.030;3.706;2023-12-22T00:51:40;20.00;78.80
56046;DHT22;41913;51.030;3.706;2023-12-22T00:54:06;20.00;78.70
56046;DHT22;41913;51.030;3.706;2023-12-22T00:56:32;20.00;78.80
56046;DHT22;41913;51.030;3.706;2023-12-22T00:58:58;19.90;78.70
56046;DHT22;41913;51.030;3.706;2023-12-22T01:01:24;19.90;78.80
56046;DHT22;41913;51.030;3.706;2023-12-22T01:03:50;19.90;78.80
56046;DHT22;41913;51.030;3.706;2023-12-22T01:06:16;19.90;78.60
56046;DHT22;41913;51.030;3.706;2023-12-22T01:08:41;19.90;78.70
56046;DHT22;41913;51.030;3.706;2023-12-22T01:11:07;19.90;78.60
56046;DHT22;41913;51.030;3.706;2023-12-22T01:13:34;19.80;78.60
56046;DHT22;41913;51.030;3.706;2023-12-22T01:16:00;19.90;78.80
56046;DHT22;41913;51.030;3.706;2023-12-22T01:18:26;19.80;78.70
56046;DHT22;41913;51.030;3.706;2023-12-22T01:20:54;19.90;78.70
56046;DHT22;41913;51.030;3.706;2023-12-22T01:23:20;19.80;78.70
56046;DHT22;41913;51.030;3.706;2023-12-22T01:25:46;19.80;78.80
56046;DHT22;41913;51.030;3.706;2023-12-22T01:28:11;19.80;78.70
56046;DHT22;41913;51.030;3.706;2023-12-22T01:30:38;19.80;78.60
56046;DHT22;41913;51.030;3.706;2023-12-22T01:33:04;19.80;78.70
56046;DHT22;41913;51.030;3.706;2023-12-22T01:35:29;19.80;78.70
56046;DHT22;41913;51.030;3.706;2023-12-22T01:37:55;19.80;78.60
56046;DHT22;41913;51.030;3.706;2023-12-22T01:40:22;19.80;78.80
56046;DHT22;41913;51.030;3.706;2023-12-22T01:42:48;19.80;78.70
56046;DHT22;41913;51.030;3.706;2023-12-22T01:45:13;19.70;78.70
56046;DHT22;41913;51.030;3.706;2023-12-22T01:47:39;19.70;78.80
56046;DHT22;41913;51.030;3.706;2023-12-22T01:50:06;19.70;78.70
56046;DHT22;41913;51.030;3.706;2023-12-22T01:52:32;19.70;78.80
56046;DHT22;41913;51.030;3.706;2023-12-22T01:54:58;19.70;78.70
56046;DHT22;41913;51.030;3.706;2023-12-22T01:57:24;19.70;78.70
56046;DHT22;41913;51.030;3.706;2023-12-22T01:59:50;19.70;78.80
56046;DHT22;41913;51.030;3.706;2023-12-22T02:02:16;19.70;78.80
56046;DHT22;41913;51.030;3.706;2023-12-22T02:04:42;19.70;78.80
56046;DHT22;41913;51.030;3.706;2023-12-22T02:07:09;19.70;78.70
56046;DHT22;41913;51.030;3.706;2023-12-22T02:09:36;19.70;78.80
56046;DHT22;41913;51.030;3.706;2023-12-22T02:12:03;19.60;78.60
56046;DHT22;41913;51.030;3.706;2023-12-22T02:14:29;19.60;78.60
56046;DHT22;41913;51.030;3.706;2023-12-22T02:19:50;19.60;78.70
56046;DHT22;41913;51.030;3.706;2023-12-22T02:22:16;19.60;78.60
56046;DHT22;41913;51.030;3.706;2023-12-22T02:24:42;19.60;78.70
56046;DHT22;41913;51.030;3.706;2023-12-22T02:30:31;19.60;78.50
56046;DHT22;41913;51.030;3.706;2023-12-22T02:32:59;19.60;78.60
56046;DHT22;41913;51.030;3.706;2023-12-22T02:35:28;19.50;78.60
56046;DHT22;41913;51.030;3.706;2023-12-22T02:37:56;19.50;78.50
56046;DHT22;41913;51.030;3.706;2023-12-22T02:40:23;19.50;78.60
56046;DHT22;41913;51.030;3.706;2023-12-22T02:42:50;19.60;78.70
56046;DHT22;41913;51.030;3.706;2023-12-22T02:45:18;19.50;78.60
56046;DHT22;41913;51.030;3.706;2023-12-22T02:47:44;19.50;78.30
56046;DHT22;41913;51.030;3.706;2023-12-22T02:50:10;19.50;78.50
56046;DHT22;41913;51.030;3.706;2023-12-22T02:52:37;19.50;78.70
56046;DHT22;41913;51.030;3.706;2023-12-22T02:55:04;19.50;78.70
56046;DHT22;41913;51.030;3.706;2023-12-22T02:57:30;19.50;78.70
56046;DHT22;41913;51.030;3.706;2023-12-22T02:59:56;19.50;78.70
56046;DHT22;41913;51.030;3.706;2023-12-22T03:02:22;19.50;78.80
56046;DHT22;41913;51.030;3.706;2023-12-22T03:04:48;19.50;78.80
56046;DHT22;41913;51.030;3.706;2023-12-22T03:07:15;19.50;78.80
56046;DHT22;41913;51.030;3.706;2023-12-22T03:09:42;19.50;78.80
56046;DHT22;41913;51.030;3.706;2023-12-22T03:12:09;19.50;78.80
56046;DHT22;41913;51.030;3.706;2023-12-22T03:14:35;19.50;78.70
56046;DHT22;41913;51.030;3.706;2023-12-22T03:17:05;19.40;78.60
56046;DHT22;41913;51.030;3.706;2023-12-22T03:19:32;19.50;78.70
56046;DHT22;41913;51.030;3.706;2023-12-22T03:21:58;19.40;78.90
56046;DHT22;41913;51.030;3.706;2023-12-22T03:24:28;19.40;78.80
56046;DHT22;41913;51.030;3.706;2023-12-22T03:26:54;19.40;78.80
56046;DHT22;41913;51.030;3.706;2023-12-22T03:29:20;19.40;78.80
56046;DHT22;41913;51.030;3.706;2023-12-22T03:31:46;19.40;78.80
56046;DHT22;41913;51.030;3.706;2023-12-22T03:34:12;19.40;78.80
56046;DHT22;41913;51.030;3.706;2023-12-22T03:36:39;19.40;78.90
56046;DHT22;41913;51.030;3.706;2023-12-22T03:39:04;19.40;78.90
56046;DHT22;41913;51.030;3.706;2023-12-22T03:41:31;19.40;78.90
56046;DHT22;41913;51.030;3.706;2023-12-22T03:43:57;19.40;79.00
56046;DHT22;41913;51.030;3.706;2023-12-22T03:46:23;19.40;79.00
56046;DHT22;41913;51.030;3.706;2023-12-22T03:48:52;19.40;79.10
56046;DHT22;41913;51.030;3.706;2023-12-22T03:51:17;19.40;79.10
56046;DHT22;41913;51.030;3.706;2023-12-22T03:53:43;19.40;79.20
56046;DHT22;41913;51.030;3.706;2023-12-22T03:56:09;19.30;79.20
56046;DHT22;41913;51.030;3.706;2023-12-22T03:58:36;19.30;79.30
56046;DHT22;41913;51.030;3.706;2023-12-22T04:01:02;19.30;78.90
56046;DHT22;41913;51.030;3.706;2023-12-22T04:03:28;19.40;79.50
56046;DHT22;41913;51.030;3.706;2023-12-22T04:05:54;19.30;79.40
56046;DHT22;41913;51.030;3.706;2023-12-22T04:08:20;19.30;79.80
56046;DHT22;41913;51.030;3.706;2023-12-22T04:10:46;19.30;79.90
56046;DHT22;41913;51.030;3.706;2023-12-22T04:13:12;19.30;79.90
56046;DHT22;41913;51.030;3.706;2023-12-22T04:15:38;19.30;79.80
56046;DHT22;41913;51.030;3.706;2023-12-22T04:18:04;19.30;80.00
56046;DHT22;41913;51.030;3.706;2023-12-22T04:20:30;19.30;80.00
56046;DHT22;41913;51.030;3.706;2023-12-22T04:22:57;19.30;80.00
56046;DHT22;41913;51.030;3.706;2023-12-22T04:25:23;19.30;80.10
56046;DHT22;41913;51.030;3.706;2023-12-22T04:27:50;19.30;79.90
56046;DHT22;41913;51.030;3.706;2023-12-22T04:30:17;19.30;80.10
56046;DHT22;41913;51.030;3.706;2023-12-22T04:32:43;19.30;80.00
56046;DHT22;41913;51.030;3.706;2023-12-22T04:35:09;19.30;80.10
56046;DHT22;41913;51.030;3.706;2023-12-22T04:37:35;19.30;80.10
56046;DHT22;41913;51.030;3.706;2023-12-22T04:40:00;19.30;79.80
56046;DHT22;41913;51.030;3.706;2023-12-22T04:42:26;19.20;80.00
56046;DHT22;41913;51.030;3.706;2023-12-22T04:44:53;19.30;79.80
56046;DHT22;41913;51.030;3.706;2023-12-22T04:47:19;19.30;79.80
56046;DHT22;41913;51.030;3.706;2023-12-22T04:49:46;19.30;80.00
56046;DHT22;41913;51.030;3.706;2023-12-22T04:52:12;19.20;80.00
56046;DHT22;41913;51.030;3.706;2023-12-22T04:54:38;19.30;79.80
56046;DHT22;41913;51.030;3.706;2023-12-22T04:57:04;19.20;79.90
56046;DHT22;41913;51.030;3.706;2023-12-22T04:59:30;19.20;80.00
56046;DHT22;41913;51.030;3.706;2023-12-22T05:01:56;19.20;80.00
56046;DHT22;41913;51.030;3.706;2023-12-22T05:04:22;19.20;79.90
56046;DHT22;41913;51.030;3.706;2023-12-22T05:06:48;19.20;79.90
56046;DHT22;41913;51.030;3.706;2023-12-22T05:09:15;19.20;80.00
56046;DHT22;41913;51.030;3.706;2023-12-22T05:11:41;19.20;79.80
56046;DHT22;41913;51.030;3.706;2023-12-22T05:14:06;19.20;79.60
56046;DHT22;41913;51.030;3.706;2023-12-22T05:16:32;19.20;79.70
56046;DHT22;41913;51.030;3.706;2023-12-22T05:18:58;19.20;79.70
56046;DHT22;41913;51.030;3.706;2023-12-22T05:21:24;19.20;80.10
56046;DHT22;41913;51.030;3.706;2023-12-22T05:23:51;19.20;80.00
56046;DHT22;41913;51.030;3.706;2023-12-22T05:26:20;19.20;79.90
56046;DHT22;41913;51.030;3.706;2023-12-22T05:28:47;19.20;79.90
56046;DHT22;41913;51.030;3.706;2023-12-22T05:31:15;19.20;80.00
56046;DHT22;41913;51.030;3.706;2023-12-22T05:33:41;19.20;80.10
56046;DHT22;41913;51.030;3.706;2023-12-22T05:36:07;19.20;80.10
56046;DHT22;41913;51.030;3.706;2023-12-22T05:38:39;19.20;80.10
56046;DHT22;41913;51.030;3.706;2023-12-22T05:41:06;19.20;80.20
56046;DHT22;41913;51.030;3.706;2023-12-22T05:43:32;19.20;80.10
56046;DHT22;41913;51.030;3.706;2023-12-22T05:45:59;19.20;80.00
56046;DHT22;41913;51.030;3.706;2023-12-22T05:48:26;19.10;79.80
56046;DHT22;41913;51.030;3.706;2023-12-22T05:50:56;19.10;79.80
56046;DHT22;41913;51.030;3.706;2023-12-22T05:53:22;19.10;79.80
56046;DHT22;41913;51.030;3.706;2023-12-22T05:55:48;19.10;79.80
56046;DHT22;41913;51.030;3.706;2023-12-22T05:58:15;19.10;79.80
56046;DHT22;41913;51.030;3.706;2023-12-22T06:00:41;19.10;79.80
56046;DHT22;41913;51.030;3.706;2023-12-22T06:03:07;19.10;79.80
56046;DHT22;41913;51.030;3.706;2023-12-22T06:05:33;19.10;79.80
56046;DHT22;41913;51.030;3.706;2023-12-22T06:07:58;19.10;79.70
56046;DHT22;41913;51.030;3.706;2023-12-22T06:10:24;19.10;79.70
56046;DHT22;41913;51.030;3.706;2023-12-22T06:12:51;19.10;79.60
56046;DHT22;41913;51.030;3.706;2023-12-22T06:15:16;19.10;79.60
56046;DHT22;41913;51.030;3.706;2023-12-22T06:17:42;19.10;79.60
56046;DHT22;41913;51.030;3.706;2023-12-22T06:20:08;19.10;79.60
56046;DHT22;41913;51.030;3.706;2023-12-22T06:22:34;19.10;79.60
56046;DHT22;41913;51.030;3.706;2023-12-22T06:25:04;19.00;79.50
56046;DHT22;41913;51.030;3.706;2023-12-22T06:27:33;19.10;79.70
56046;DHT22;41913;51.030;3.706;2023-12-22T06:29:59;19.10;80.30
56046;DHT22;41913;51.030;3.706;2023-12-22T06:32:25;19.00;79.60
56046;DHT22;41913;51.030;3.706;2023-12-22T06:34:50;19.00;80.40
56046;DHT22;41913;51.030;3.706;2023-12-22T06:37:17;19.10;81.20
56046;DHT22;41913;51.030;3.706;2023-12-22T06:39:43;19.10;81.40
56046;DHT22;41913;51.030;3.706;2023-12-22T06:42:12;19.10;81.30
56046;DHT22;41913;51.030;3.706;2023-12-22T06:44:41;19.10;81.20
56046;DHT22;41913;51.030;3.706;2023-12-22T06:47:09;19.20;81.20
56046;DHT22;41913;51.030;3.706;2023-12-22T06:49:34;19.30;81.80
56046;DHT22;41913;51.030;3.706;2023-12-22T06:52:00;19.40;82.00
56046;DHT22;41913;51.030;3.706;2023-12-22T06:54:28;19.50;82.70
56046;DHT22;41913;51.030;3.706;2023-12-22T06:56:54;19.60;83.50
56046;DHT22;41913;51.030;3.706;2023-12-22T06:59:20;19.70;84.50
56046;DHT22;41913;51.030;3.706;2023-12-22T07:01:46;19.90;86.20
56046;DHT22;41913;51.030;3.706;2023-12-22T07:04:13;20.00;86.50
56046;DHT22;41913;51.030;3.706;2023-12-22T07:06:44;20.00;85.50
56046;DHT22;41913;51.030;3.706;2023-12-22T07:11:51;20.10;83.80
56046;DHT22;41913;51.030;3.706;2023-12-22T07:14:24;20.20;83.30
56046;DHT22;41913;51.030;3.706;2023-12-22T07:16:50;20.20;82.80
56046;DHT22;41913;51.030;3.706;2023-12-22T07:19:19;20.30;82.60
56046;DHT22;41913;51.030;3.706;2023-12-22T07:21:46;20.30;82.10
56046;DHT22;41913;51.030;3.706;2023-12-22T07:24:11;20.40;81.80
56046;DHT22;41913;51.030;3.706;2023-12-22T07:26:39;20.40;81.50
56046;DHT22;41913;51.030;3.706;2023-12-22T07:29:05;20.50;81.30
56046;DHT22;41913;51.030;3.706;2023-12-22T07:31:31;20.50;81.00
56046;DHT22;41913;51.030;3.706;2023-12-22T07:33:56;20.60;80.80
56046;DHT22;41913;51.030;3.706;2023-12-22T07:36:22;20.60;80.60
56046;DHT22;41913;51.030;3.706;2023-12-22T07:38:48;20.60;80.40
56046;DHT22;41913;51.030;3.706;2023-12-22T07:41:13;20.60;80.50
56046;DHT22;41913;51.030;3.706;2023-12-22T07:43:40;20.70;80.80
56046;DHT22;41913;51.030;3.706;2023-12-22T07:46:07;20.70;81.10
56046;DHT22;41913;51.030;3.706;2023-12-22T07:48:35;20.70;82.00
56046;DHT22;41913;51.030;3.706;2023-12-22T07:51:01;20.70;82.20
56046;DHT22;41913;51.030;3.706;2023-12-22T07:53:27;20.70;81.80
56046;DHT22;41913;51.030;3.706;2023-12-22T07:55:53;20.70;81.90
56046;DHT22;41913;51.030;3.706;2023-12-22T07:58:19;20.70;81.40
56046;DHT22;41913;51.030;3.706;2023-12-22T08:00:44;20.80;81.40
56046;DHT22;41913;51.030;3.706;2023-12-22T08:03:11;20.80;81.30
56046;DHT22;41913;51.030;3.706;2023-12-22T08:05:37;20.80;81.40
56046;DHT22;41913;51.030;3.706;2023-12-22T08:08:05;20.80;81.40
56046;DHT22;41913;51.030;3.706;2023-12-22T08:10:32;20.80;81.40
56046;DHT22;41913;51.030;3.706;2023-12-22T08:12:58;20.80;81.40
56046;DHT22;41913;51.030;3.706;2023-12-22T08:15:23;20.80;81.10
56046;DHT22;41913;51.030;3.706;2023-12-22T08:17:50;20.80;80.80
56046;DHT22;41913;51.030;3.706;2023-12-22T08:20:18;20.80;80.60
56046;DHT22;41913;51.030;3.706;2023-12-22T08:22:46;20.90;80.80
56046;DHT22;41913;51.030;3.706;2023-12-22T08:25:12;20.90;80.90
56046;DHT22;41913;51.030;3.706;2023-12-22T08:27:38;20.90;80.80
56046;DHT22;41913;51.030;3.706;2023-12-22T08:30:05;20.90;80.80
56046;DHT22;41913;51.030;3.706;2023-12-22T08:32:30;20.90;80.60
56046;DHT22;41913;51.030;3.706;2023-12-22T08:34:56;20.90;81.10
56046;DHT22;41913;51.030;3.706;2023-12-22T08:37:22;21.00;81.40
56046;DHT22;41913;51.030;3.706;2023-12-22T08:39:48;21.00;81.50
56046;DHT22;41913;51.030;3.706;2023-12-22T08:42:15;21.00;82.20
56046;DHT22;41913;51.030;3.706;2023-12-22T08:44:40;21.10;83.90
56046;DHT22;41913;51.030;3.706;2023-12-22T08:47:06;21.20;83.30
56046;DHT22;41913;51.030;3.706;2023-12-22T08:49:32;21.20;82.00
56046;DHT22;41913;51.030;3.706;2023-12-22T08:51:58;21.10;81.80
56046;DHT22;41913;51.030;3.706;2023-12-22T08:54:23;21.10;82.00
56046;DHT22;41913;51.030;3.706;2023-12-22T08:56:49;21.10;81.60
56046;DHT22;41913;51.030;3.706;2023-12-22T08:59:15;21.10;81.90
56046;DHT22;41913;51.030;3.706;2023-12-22T09:01:40;21.10;82.10
56046;DHT22;41913;51.030;3.706;2023-12-22T09:04:09;21.10;82.40
56046;DHT22;41913;51.030;3.706;2023-12-22T09:06:38;21.00;82.70
56046;DHT22;41913;51.030;3.706;2023-12-22T09:09:05;21.10;82.70
56046;DHT22;41913;51.030;3.706;2023-12-22T09:11:32;21.10;83.30
56046;DHT22;41913;51.030;3.706;2023-12-22T09:13:57;21.10;83.50
56046;DHT22;41913;51.030;3.706;2023-12-22T09:16:23;21.10;82.90
56046;DHT22;41913;51.030;3.706;2023-12-22T09:18:51;21.10;82.80
56046;DHT22;41913;51.030;3.706;2023-12-22T09:21:17;21.10;83.20
56046;DHT22;41913;51.030;3.706;2023-12-22T09:23:46;21.10;82.70
56046;DHT22;41913;51.030;3.706;2023-12-22T09:26:15;21.10;83.00
56046;DHT22;41913;51.030;3.706;2023-12-22T09:28:46;21.10;82.40
56046;DHT22;41913;51.030;3.706;2023-12-22T09:31:13;21.10;82.00
56046;DHT22;41913;51.030;3.706;2023-12-22T09:33:43;21.10;81.90
56046;DHT22;41913;51.030;3.706;2023-12-22T09:36:09;21.10;82.00
56046;DHT22;41913;51.030;3.706;2023-12-22T09:38:35;21.20;81.80
56046;DHT22;41913;51.030;3.706;2023-12-22T09:41:01;21.20;82.20
56046;DHT22;41913;51.030;3.706;2023-12-22T09:43:28;21.20;82.30
56046;DHT22;41913;51.030;3.706;2023-12-22T09:45:54;21.20;82.20
56046;DHT22;41913;51.030;3.706;2023-12-22T09:48:21;21.20;81.90
56046;DHT22;41913;51.030;3.706;2023-12-22T09:50:53;21.20;82.40
56046;DHT22;41913;51.030;3.706;2023-12-22T09:53:23;21.20;81.60
56046;DHT22;41913;51.030;3.706;2023-12-22T09:55:50;21.20;82.00
56046;DHT22;41913;51.030;3.706;2023-12-22T09:58:17;21.20;81.90
56046;DHT22;41913;51.030;3.706;2023-12-22T10:00:44;21.20;81.40
56046;DHT22;41913;51.030;3.706;2023-12-22T10:03:11;21.30;81.60
56046;DHT22;41913;51.030;3.706;2023-12-22T10:05:39;21.30;81.20
56046;DHT22;41913;51.030;3.706;2023-12-22T10:08:06;21.20;80.80
56046;DHT22;41913;51.030;3.706;2023-12-22T10:10:32;21.30;80.60
56046;DHT22;41913;51.030;3.706;2023-12-22T10:12:59;21.30;80.50
56046;DHT22;41913;51.030;3.706;2023-12-22T10:15:26;21.30;80.40
56046;DHT22;41913;51.030;3.706;2023-12-22T10:17:53;21.30;80.20
56046;DHT22;41913;51.030;3.706;2023-12-22T10:20:19;21.30;79.90
56046;DHT22;41913;51.030;3.706;2023-12-22T10:22:45;21.30;79.70
56046;DHT22;41913;51.030;3.706;2023-12-22T10:25:15;21.30;79.60
56046;DHT22;41913;51.030;3.706;2023-12-22T10:27:42;21.20;79.50
56046;DHT22;41913;51.030;3.706;2023-12-22T10:30:11;21.20;79.60
56046;DHT22;41913;51.030;3.706;2023-12-22T10:32:40;21.20;79.50
56046;DHT22;41913;51.030;3.706;2023-12-22T10:35:10;21.10;79.70
56046;DHT22;41913;51.030;3.706;2023-12-22T10:37:36;21.10;79.40
56046;DHT22;41913;51.030;3.706;2023-12-22T10:40:08;21.10;79.40
56046;DHT22;41913;51.030;3.706;2023-12-22T10:42:35;21.10;79.50
56046;DHT22;41913;51.030;3.706;2023-12-22T10:45:01;21.10;79.20
56046;DHT22;41913;51.030;3.706;2023-12-22T10:47:28;21.10;79.20
56046;DHT22;41913;51.030;3.706;2023-12-22T10:49:54;21.10;79.10
56046;DHT22;41913;51.030;3.706;2023-12-22T10:52:20;21.10;79.30
56046;DHT22;41913;51.030;3.706;2023-12-22T10:54:48;21.10;79.20
56046;DHT22;41913;51.030;3.706;2023-12-22T10:57:17;21.10;79.00
56046;DHT22;41913;51.030;3.706;2023-12-22T10:59:45;21.10;78.90
56046;DHT22;41913;51.030;3.706;2023-12-22T11:02:17;21.10;78.80
56046;DHT22;41913;51.030;3.706;2023-12-22T11:05:04;21.10;78.60
56046;DHT22;41913;51.030;3.706;2023-12-22T11:07:35;21.10;78.70
56046;DHT22;41913;51.030;3.706;2023-12-22T11:10:06;21.10;78.50
56046;DHT22;41913;51.030;3.706;2023-12-22T11:12:36;21.10;78.30
56046;DHT22;41913;51.030;3.706;2023-12-22T11:15:04;21.10;78.30
56046;DHT22;41913;51.030;3.706;2023-12-22T11:17:34;21.10;78.20
56046;DHT22;41913;51.030;3.706;2023-12-22T11:20:06;21.10;78.20
56046;DHT22;41913;51.030;3.706;2023-12-22T11:22:36;21.10;78.50
56046;DHT22;41913;51.030;3.706;2023-12-22T11:25:04;21.10;78.40
56046;DHT22;41913;51.030;3.706;2023-12-22T11:27:33;21.10;78.90
56046;DHT22;41913;51.030;3.706;2023-12-22T11:30:01;21.10;79.10
56046;DHT22;41913;51.030;3.706;2023-12-22T11:32:28;21.10;79.20
56046;DHT22;41913;51.030;3.706;2023-12-22T11:34:54;21.10;79.30
56046;DHT22;41913;51.030;3.706;2023-12-22T11:37:23;21.10;79.50
56046;DHT22;41913;51.030;3.706;2023-12-22T11:39:48;21.10;79.80
56046;DHT22;41913;51.030;3.706;2023-12-22T11:42:21;21.10;80.00
56046;DHT22;41913;51.030;3.706;2023-12-22T11:44:48;21.00;80.20
56046;DHT22;41913;51.030;3.706;2023-12-22T11:47:14;21.00;80.30
56046;DHT22;41913;51.030;3.706;2023-12-22T11:49:41;21.00;80.50
56046;DHT22;41913;51.030;3.706;2023-12-22T11:52:11;21.00;80.60
56046;DHT22;41913;51.030;3.706;2023-12-22T11:55:03;21.00;80.70
56046;DHT22;41913;51.030;3.706;2023-12-22T11:57:38;21.00;80.50
56046;DHT22;41913;51.030;3.706;2023-12-22T12:00:09;21.00;80.60
56046;DHT22;41913;51.030;3.706;2023-12-22T12:02:37;21.00;80.60
56046;DHT22;41913;51.030;3.706;2023-12-22T12:05:07;21.00;80.70
56046;DHT22;41913;51.030;3.706;2023-12-22T12:07:46;21.00;80.70
56046;DHT22;41913;51.030;3.706;2023-12-22T12:13:09;20.90;80.90
56046;DHT22;41913;51.030;3.706;2023-12-22T12:15:36;20.90;81.00
56046;DHT22;41913;51.030;3.706;2023-12-22T12:18:02;20.90;80.90
56046;DHT22;41913;51.030;3.706;2023-12-22T12:20:28;20.90;80.80
56046;DHT22;41913;51.030;3.706;2023-12-22T12:22:54;20.90;80.80
56046;DHT22;41913;51.030;3.706;2023-12-22T12:25:27;20.90;80.80
56046;DHT22;41913;51.030;3.706;2023-12-22T12:28:04;20.90;80.90
56046;DHT22;41913;51.030;3.706;2023-12-22T12:30:31;20.90;81.00
56046;DHT22;41913;51.030;3.706;2023-12-22T12:32:59;20.90;80.90
56046;DHT22;41913;51.030;3.706;2023-12-22T12:35:32;20.90;81.10
56046;DHT22;41913;51.030;3.706;2023-12-22T12:37:59;20.90;81.10
56046;DHT22;41913;51.030;3.706;2023-12-22T12:40:27;20.90;81.20
56046;DHT22;41913;51.030;3.706;2023-12-22T12:42:58;20.90;81.10
56046;DHT22;41913;51.030;3.706;2023-12-22T12:45:24;20.90;80.90
56046;DHT22;41913;51.030;3.706;2023-12-22T12:48:00;20.90;80.90
56046;DHT22;41913;51.030;3.706;2023-12-22T12:50:27;20.90;80.90
56046;DHT22;41913;51.030;3.706;2023-12-22T12:52:57;20.90;80.90
56046;DHT22;41913;51.030;3.706;2023-12-22T12:55:24;20.90;80.90
56046;DHT22;41913;51.030;3.706;2023-12-22T12:57:54;20.80;80.90
56046;DHT22;41913;51.030;3.706;2023-12-22T13:00:30;20.90;81.00
56046;DHT22;41913;51.030;3.706;2023-12-22T13:03:05;20.90;81.00
56046;DHT22;41913;51.030;3.706;2023-12-22T13:05:32;20.90;81.10
56046;DHT22;41913;51.030;3.706;2023-12-22T13:08:11;20.90;81.00
56046;DHT22;41913;51.030;3.706;2023-12-22T13:10:38;20.90;80.80
56046;DHT22;41913;51.030;3.706;2023-12-22T13:13:04;20.90;80.90
56046;DHT22;41913;51.030;3.706;2023-12-22T13:15:30;20.90;81.50
56046;DHT22;41913;51.030;3.706;2023-12-22T13:17:56;20.90;80.90
56046;DHT22;41913;51.030;3.706;2023-12-22T13:20:23;20.80;80.60
56046;DHT22;41913;51.030;3.706;2023-12-22T13:22:49;20.80;80.60
56046;DHT22;41913;51.030;3.706;2023-12-22T13:25:16;20.90;80.80
56046;DHT22;41913;51.030;3.706;2023-12-22T13:27:46;20.90;80.90
56046;DHT22;41913;51.030;3.706;2023-12-22T13:30:35;20.90;80.80
56046;DHT22;41913;51.030;3.706;2023-12-22T13:33:03;20.90;80.70
56046;DHT22;41913;51.030;3.706;2023-12-22T13:35:29;20.90;80.70
56046;DHT22;41913;51.030;3.706;2023-12-22T13:37:55;20.90;80.60
56046;DHT22;41913;51.030;3.706;2023-12-22T13:40:22;20.90;80.70
56046;DHT22;41913;51.030;3.706;2023-12-22T13:42:57;20.90;80.80
56046;DHT22;41913;51.030;3.706;2023-12-22T13:45:26;20.90;80.90
56046;DHT22;41913;51.030;3.706;2023-12-22T13:47:52;20.80;80.90
56046;DHT22;41913;51.030;3.706;2023-12-22T13:50:18;20.90;81.00
56046;DHT22;41913;51.030;3.706;2023-12-22T13:52:45;20.90;81.00
56046;DHT22;41913;51.030;3.706;2023-12-22T13:55:15;20.90;80.80
56046;DHT22;41913;51.030;3.706;2023-12-22T13:57:43;20.90;80.70
56046;DHT22;41913;51.030;3.706;2023-12-22T14:02:48;20.90;80.60
56046;DHT22;41913;51.030;3.706;2023-12-22T14:05:19;20.90;80.60
56046;DHT22;41913;51.030;3.706;2023-12-22T14:07:47;20.80;80.60
56046;DHT22;41913;51.030;3.706;2023-12-22T14:10:13;20.80;80.80
56046;DHT22;41913;51.030;3.706;2023-12-22T14:12:40;20.80;80.80
56046;DHT22;41913;51.030;3.706;2023-12-22T14:15:07;20.80;80.80
56046;DHT22;41913;51.030;3.706;2023-12-22T14:17:34;20.80;80.80
56046;DHT22;41913;51.030;3.706;2023-12-22T14:20:00;20.80;80.60
56046;DHT22;41913;51.030;3.706;2023-12-22T14:22:26;20.80;80.50
56046;DHT22;41913;51.030;3.706;2023-12-22T14:24:52;20.80;80.50
56046;DHT22;41913;51.030;3.706;2023-12-22T14:27:18;20.80;80.60
56046;DHT22;41913;51.030;3.706;2023-12-22T14:29:45;20.80;80.70
56046;DHT22;41913;51.030;3.706;2023-12-22T14:32:12;20.80;80.80
56046;DHT22;41913;51.030;3.706;2023-12-22T14:34:40;20.80;80.90
56046;DHT22;41913;51.030;3.706;2023-12-22T14:37:07;20.90;81.00
56046;DHT22;41913;51.030;3.706;2023-12-22T14:39:32;20.90;81.10
56046;DHT22;41913;51.030;3.706;2023-12-22T14:41:59;20.90;81.10
56046;DHT22;41913;51.030;3.706;2023-12-22T14:44:25;20.90;81.00
56046;DHT22;41913;51.030;3.706;2023-12-22T14:46:51;20.90;81.00
56046;DHT22;41913;51.030;3.706;2023-12-22T14:49:16;20.90;81.10
56046;DHT22;41913;51.030;3.706;2023-12-22T14:51:43;20.90;81.10
56046;DHT22;41913;51.030;3.706;2023-12-22T14:54:11;20.90;81.10
56046;DHT22;41913;51.030;3.706;2023-12-22T14:56:41;20.90;81.10
56046;DHT22;41913;51.030;3.706;2023-12-22T14:59:13;20.90;81.20
56046;DHT22;41913;51.030;3.706;2023-12-22T15:01:40;20.90;81.10
56046;DHT22;41913;51.030;3.706;2023-12-22T15:04:07;20.90;81.10
56046;DHT22;41913;51.030;3.706;2023-12-22T15:06:39;20.90;81.10
56046;DHT22;41913;51.030;3.706;2023-12-22T15:09:13;20.90;81.00
56046;DHT22;41913;51.030;3.706;2023-12-22T15:11:46;20.90;81.00
56046;DHT22;41913;51.030;3.706;2023-12-22T15:14:12;20.90;80.80
56046;DHT22;41913;51.030;3.706;2023-12-22T15:16:42;20.90;81.40
56046;DHT22;41913;51.030;3.706;2023-12-22T15:19:11;20.90;80.80
56046;DHT22;41913;51.030;3.706;2023-12-22T15:21:40;20.90;80.80
56046;DHT22;41913;51.030;3.706;2023-12-22T15:24:07;20.90;80.80
56046;DHT22;41913;51.030;3.706;2023-12-22T15:26:33;21.00;80.80
56046;DHT22;41913;51.030;3.706;2023-12-22T15:29:00;21.00;80.80
56046;DHT22;41913;51.030;3.706;2023-12-22T15:31:26;20.90;80.90
56046;DHT22;41913;51.030;3.706;2023-12-22T15:33:54;21.00;80.80
56046;DHT22;41913;51.030;3.706;2023-12-22T15:36:20;20.90;80.70
56046;DHT22;41913;51.030;3.706;2023-12-22T15:38:48;20.90;80.70
56046;DHT22;41913;51.030;3.706;2023-12-22T15:41:14;20.90;80.80
56046;DHT22;41913;51.030;3.706;2023-12-22T15:43:41;21.00;80.80